Terminal Aerodrome Forecast
Issued by NWS

Home | Current Version | Previous Version | Graphics & Text | Print | Product List | Glossary On
Versions: 1 2 3 4 5 6 7 8 9 10 11 12 13 14 15 16 17 18 19 20 21 22 23 24 25 26
000
FTUS42 KMHX 300530
TAFPGV
TAF
KPGV 300530Z 3006/0106 VRB04KT P6SM BKN020
     FM300800 06005KT 3SM BR BKN005
     FM301400 06006KT P6SM BKN020
     FM301600 07007KT P6SM SCT025 BKN035
     FM010500 VRB04KT P6SM BKN030
      AMD LTD TO CLD VIS AND WIND=

USA.gov is the U.S. government's official web portal to all federal, state and local government web resources and services.